CST,Max TemperatureF,Mean TemperatureF,Min TemperatureF,Max Dew PointF,MeanDew PointF,Min DewpointF,Max Humidity, Mean Humidity, Min Humidity, Max Sea Level PressureIn, Mean Sea Level PressureIn, Min Sea Level PressureIn, Max VisibilityMiles, Mean VisibilityMiles, Min VisibilityMiles, Max Wind SpeedMPH, Mean Wind SpeedMPH, Max Gust SpeedMPH,PrecipitationIn, CloudCover, Events, WindDirDegrees
2013-1-1,48,40,31,46,38,28,93,79,65,30.30,30.17,30.03,10,5,2,18,11,23,0.03,6,Rain,357
2013-1-2,42,34,26,28,27,25,92,74,55,30.37,30.31,30.27,8,6,5,13,6,16,0.00,0,,332
2013-1-3,49,35,21,32,27,20,92,67,42,30.47,30.42,30.35,10,8,5,16,7,20,0.00,4,,360
2013-1-4,50,44,37,39,34,29,82,64,46,30.54,30.45,30.40,10,9,3,14,5,16,0.05,7,Rain,163
2013-1-5,54,44,33,41,38,34,93,74,54,30.40,30.34,30.23,10,7,2,9,5,21,0.03,5,Rain,229
2013-1-6,60,44,28,34,29,23,100,63,26,30.41,30.34,30.30,10,7,0,14,7,20,0.00,0,Fog,341
2013-1-7,57,40,22,36,28,19,88,65,41,30.35,30.23,30.10,10,10,10,10,4,14,0.00,2,,141
2013-1-8,50,48,45,48,45,36,100,81,61,30.08,30.00,29.91,10,3,0,18,7,23,0.91,8,Fog-Rain-Thunderstorm,11
2013-1-9,63,56,48,61,55,48,100,96,88,30.06,30.00,29.89,10,4,1,21,11,24,2.17,8,Rain-Thunderstorm,33
2013-1-10,58,53,47,56,48,43,100,83,66,30.02,29.98,29.96,10,8,0,17,8,22,0.00,5,Fog,194
2013-1-11,74,59,44,62,52,41,93,67,41,29.98,29.88,29.79,10,9,4,24,11,31,0.00,3,,177
2013-1-12,77,58,39,68,58,31,100,82,63,29.93,29.79,29.65,10,4,0,28,11,33,0.02,8,Fog-Rain,144
2013-1-13,48,42,36,30,26,23,75,60,38,30.25,30.13,29.96,10,10,7,24,18,30,0.01,4,Rain-Thunderstorm,351
2013-1-14,46,38,30,29,24,20,73,60,38,30.31,30.24,30.16,10,10,10,20,13,24,0.00,4,,13
2013-1-15,39,35,31,34,29,23,96,75,54,30.26,30.18,30.14,10,5,1,21,12,24,0.16,8,Rain-Snow-Thunderstorm,2
2013-1-16,51,38,24,28,21,19,82,56,29,30.33,30.26,30.19,10,10,8,14,6,18,0.00,1,,297
2013-1-17,64,45,26,34,30,23,85,58,30,30.51,30.41,30.28,10,10,10,15,5,20,0.00,0,,339
2013-1-18,63,44,24,37,32,22,92,63,34,30.53,30.42,30.30,10,10,7,17,6,20,0.00,0,,172
2013-1-19,66,52,38,45,41,36,93,69,44,30.30,30.23,30.14,10,10,6,17,9,22,0.00,0,,175
2013-1-20,73,53,33,44,40,34,100,65,29,30.23,30.16,30.07,10,8,0,14,6,18,0.00,0,Fog,202
2013-1-21,62,48,34,42,36,32,89,63,36,30.28,30.21,30.12,10,10,7,16,8,20,0.00,0,,353
2013-1-22,69,52,34,49,40,31,83,63,42,30.33,30.25,30.19,10,9,7,20,6,24,0.00,2,,173
2013-1-23,74,59,43,54,50,43,100,75,49,30.33,30.25,30.17,10,6,0,18,10,22,0.00,2,Fog,182
2013-1-24,83,65,47,59,55,47,100,70,40,30.22,30.14,30.04,10,6,0,17,10,22,0.00,0,Fog,188
2013-1-25,64,57,49,57,50,43,100,82,64,30.18,30.10,30.03,10,4,0,18,9,23,0.00,7,Fog,342
2013-1-26,55,53,50,52,47,43,100,86,71,30.22,30.15,30.11,6,3,0,9,5,12,0.00,8,Fog,37
2013-1-27,78,66,53,63,58,52,100,75,50,30.09,30.03,29.93,10,6,0,25,13,31,T,7,Fog,169
2013-1-28,81,74,66,64,62,60,87,71,54,30.01,29.94,29.85,10,9,5,30,16,37,0.00,8,,173
2013-1-29,81,66,50,64,56,30,84,62,40,29.86,29.68,29.47,10,9,2,36,19,46,0.05,5,Rain,198
2013-1-30,56,43,29,32,23,13,78,49,19,30.19,30.03,29.77,10,10,9,28,13,36,0.00,1,,290
2013-1-31,70,50,29,28,23,16,69,41,12,30.25,30.20,30.14,10,10,10,18,10,24,0.00,0,,214